createdAt,value
2019-05-20T00:01:51.506Z,97050.00
2019-05-20T00:04:18.977Z,97059.00
2019-05-20T00:06:46.422Z,97049.00
2019-05-20T00:09:13.968Z,97047.00
2019-05-20T00:11:41.467Z,97049.00
2019-05-20T00:14:08.889Z,97050.00
2019-05-20T00:16:36.147Z,97052.00
2019-05-20T00:19:03.393Z,97057.00
2019-05-20T00:21:31.160Z,97056.00
2019-05-20T00:23:58.422Z,97048.00
2019-05-20T00:26:26.164Z,97054.00
2019-05-20T00:28:53.426Z,97058.00
2019-05-20T00:31:21.188Z,97054.00
2019-05-20T00:33:48.762Z,97050.00
2019-05-20T00:36:16.233Z,97049.00
2019-05-20T00:38:45.187Z,97048.00
2019-05-20T00:41:12.543Z,97046.00
2019-05-20T00:43:40.213Z,97045.00
2019-05-20T00:46:07.836Z,97043.00
2019-05-20T00:48:35.342Z,97039.00
2019-05-20T00:51:02.828Z,97039.00
2019-05-20T00:53:30.742Z,97039.00
2019-05-20T00:55:58.262Z,97030.00
2019-05-20T00:58:25.752Z,97023.00
2019-05-20T01:00:53.616Z,97022.00
2019-05-20T01:03:21.185Z,97031.00
2019-05-20T01:05:48.564Z,97028.00
2019-05-20T01:08:16.235Z,97034.00
2019-05-20T01:10:43.882Z,97027.00
2019-05-20T01:13:11.420Z,97020.00
2019-05-20T01:15:39.178Z,97024.00
2019-05-20T01:18:06.437Z,97023.00
2019-05-20T01:20:34.427Z,97026.00
2019-05-20T01:23:02.061Z,97030.00
2019-05-20T01:25:30.226Z,97034.00
2019-05-20T01:27:57.648Z,97040.00
2019-05-20T01:30:24.945Z,97037.00
2019-05-20T01:32:52.662Z,97035.00
2019-05-20T01:35:19.964Z,97036.00
2019-05-20T01:37:47.762Z,97038.00
2019-05-20T01:40:15.622Z,97036.00
2019-05-20T01:42:43.076Z,97030.00
2019-05-20T01:45:11.294Z,97024.00
2019-05-20T01:47:38.781Z,97026.00
2019-05-20T01:50:06.719Z,97023.00
2019-05-20T01:52:34.653Z,97029.00
2019-05-20T01:55:02.128Z,97029.00
2019-05-20T01:57:29.835Z,97034.00
2019-05-20T01:59:57.282Z,97028.00
2019-05-20T02:02:24.732Z,97021.00
2019-05-20T02:04:51.843Z,97025.00
2019-05-20T02:07:19.509Z,97020.00
2019-05-20T02:09:46.977Z,97022.00
2019-05-20T02:12:14.762Z,97014.00
2019-05-20T02:14:49.537Z,97008.00
2019-05-20T02:17:16.792Z,97010.00
2019-05-20T02:19:44.302Z,97016.00
2019-05-20T02:22:11.762Z,97018.00
2019-05-20T02:24:39.015Z,97026.00
2019-05-20T02:27:06.517Z,97025.00
2019-05-20T02:29:33.716Z,97027.00
2019-05-20T02:32:01.274Z,97025.00
2019-05-20T02:34:28.634Z,97026.00
2019-05-20T02:36:56.082Z,97016.00
2019-05-20T02:39:26.472Z,97021.00
2019-05-20T02:41:53.348Z,97022.00
2019-05-20T02:44:20.703Z,97028.00
2019-05-20T02:46:48.278Z,97030.00
2019-05-20T02:49:15.818Z,97021.00
2019-05-20T02:51:43.497Z,97014.00
2019-05-20T02:54:11.348Z,97013.00
2019-05-20T02:56:38.568Z,97007.00
2019-05-20T02:59:05.959Z,97018.00
2019-05-20T03:01:33.739Z,97014.00
2019-05-20T03:04:11.346Z,97013.00
2019-05-20T03:06:30.124Z,96999.00
2019-05-20T03:11:25.423Z,97001.00
2019-05-20T03:13:52.828Z,97005.00
2019-05-20T03:16:20.094Z,96996.00
2019-05-20T03:18:47.782Z,96996.00
2019-05-20T03:21:15.183Z,96997.00
2019-05-20T03:23:42.488Z,96992.00
2019-05-20T03:26:09.815Z,97000.00
2019-05-20T03:31:05.459Z,96996.00
2019-05-20T03:33:33.281Z,96998.00
2019-05-20T03:36:00.822Z,97009.00
2019-05-20T03:38:28.233Z,97016.00
2019-05-20T03:40:55.727Z,97010.00
2019-05-20T03:43:23.022Z,97005.00
2019-05-20T03:45:50.487Z,96999.00
2019-05-20T03:48:18.036Z,96996.00
2019-05-20T03:50:45.402Z,96996.00
2019-05-20T03:53:12.998Z,96992.00
2019-05-20T03:55:40.519Z,96986.00
2019-05-20T03:58:08.042Z,96986.00
2019-05-20T04:00:45.012Z,96976.00
2019-05-20T04:03:13.819Z,96978.00
2019-05-20T04:05:41.407Z,96984.00
2019-05-20T04:08:09.068Z,96976.00
2019-05-20T04:10:36.916Z,96972.00
2019-05-20T04:13:04.426Z,96981.00
2019-05-20T04:15:32.032Z,96981.00
2019-05-20T04:17:59.482Z,96988.00
2019-05-20T04:20:27.069Z,96981.00
2019-05-20T04:22:54.565Z,96989.00
2019-05-20T04:25:22.069Z,96989.00
2019-05-20T04:27:49.119Z,96993.00
2019-05-20T04:30:19.034Z,96983.00
2019-05-20T04:32:45.767Z,96998.00
2019-05-20T04:35:22.214Z,96985.00
2019-05-20T04:37:42.595Z,96987.00
2019-05-20T04:40:10.117Z,96984.00
2019-05-20T04:42:37.243Z,96987.00
2019-05-20T04:45:06.493Z,96981.00
2019-05-20T04:47:33.973Z,96997.00
2019-05-20T04:50:01.425Z,96992.00
2019-05-20T04:52:28.672Z,96992.00
2019-05-20T04:54:56.032Z,96993.00
2019-05-20T04:57:23.699Z,97000.00
2019-05-20T04:59:51.253Z,96992.00
2019-05-20T05:02:18.676Z,97003.00
2019-05-20T05:04:45.834Z,97003.00
2019-05-20T05:07:13.317Z,96993.00
2019-05-20T05:09:40.876Z,97000.00
2019-05-20T05:12:08.417Z,97006.00
2019-05-20T05:14:35.887Z,96996.00
2019-05-20T05:17:04.191Z,97004.00
2019-05-20T05:19:31.462Z,97003.00
2019-05-20T05:21:59.386Z,97007.00
2019-05-20T05:24:26.696Z,97001.00
2019-05-20T05:26:54.093Z,97008.00
2019-05-20T05:29:21.852Z,97007.00
2019-05-20T05:31:49.662Z,97007.00
2019-05-20T05:34:17.464Z,97009.00
2019-05-20T05:36:45.047Z,97022.00
2019-05-20T05:39:12.492Z,97019.00
2019-05-20T05:44:06.622Z,97014.00
2019-05-20T05:46:34.047Z,97017.00
2019-05-20T05:49:01.294Z,97022.00
2019-05-20T05:51:28.853Z,97017.00
2019-05-20T05:53:56.206Z,97015.00
2019-05-20T05:56:23.807Z,97021.00
2019-05-20T05:58:51.587Z,97028.00
2019-05-20T06:03:46.172Z,97025.00
2019-05-20T06:06:13.932Z,97032.00
2019-05-20T06:08:41.350Z,97032.00
2019-05-20T06:11:08.982Z,97039.00
2019-05-20T06:13:36.637Z,97044.00
2019-05-20T06:16:03.897Z,97041.00
2019-05-20T06:18:31.652Z,97045.00
2019-05-20T06:20:59.310Z,97042.00
2019-05-20T06:23:26.697Z,97043.00
2019-05-20T06:25:54.258Z,97044.00
2019-05-20T06:28:21.771Z,97042.00
2019-05-20T06:30:49.807Z,97041.00
2019-05-20T06:33:17.369Z,97042.00
2019-05-20T06:35:45.199Z,97051.00
2019-05-20T06:38:17.041Z,97042.00
2019-05-20T06:40:44.216Z,97051.00
2019-05-20T06:43:11.473Z,97058.00
2019-05-20T06:45:38.737Z,97056.00
2019-05-20T06:48:06.382Z,97062.00
2019-05-20T06:50:33.832Z,97061.00
2019-05-20T06:53:01.247Z,97061.00
2019-05-20T06:55:28.953Z,97066.00
2019-05-20T06:57:56.843Z,97066.00
2019-05-20T07:00:34.645Z,97066.00
2019-05-20T07:03:02.032Z,97058.00
2019-05-20T07:05:29.536Z,97068.00
2019-05-20T07:07:56.891Z,97067.00
2019-05-20T07:10:24.129Z,97066.00
2019-05-20T07:12:51.583Z,97069.00
2019-05-20T07:15:19.052Z,97067.00
2019-05-20T07:17:46.687Z,97067.00
2019-05-20T07:20:14.365Z,97063.00
2019-05-20T07:22:55.301Z,97065.00
2019-05-20T07:25:11.775Z,97071.00
2019-05-20T07:27:39.442Z,97069.00
2019-05-20T07:30:07.922Z,97063.00
2019-05-20T07:32:35.439Z,97064.00
2019-05-20T07:35:07.208Z,97070.00
2019-05-20T07:37:34.732Z,97065.00
2019-05-20T07:40:02.620Z,97068.00
2019-05-20T07:42:30.029Z,97065.00
2019-05-20T07:44:57.676Z,97073.00
2019-05-20T07:47:25.182Z,97067.00
2019-05-20T07:49:53.967Z,97071.00
2019-05-20T07:52:23.879Z,97074.00
2019-05-20T07:54:53.357Z,97065.00
2019-05-20T07:57:25.384Z,97065.00
2019-05-20T07:59:54.372Z,97077.00
2019-05-20T08:02:22.014Z,97069.00
2019-05-20T08:04:49.930Z,97074.00
2019-05-20T08:07:27.408Z,97068.00
2019-05-20T08:09:46.820Z,97067.00
2019-05-20T08:12:14.481Z,97071.00
2019-05-20T08:14:42.282Z,97067.00
2019-05-20T08:17:09.921Z,97067.00
2019-05-20T08:19:37.572Z,97078.00
2019-05-20T08:22:05.079Z,97066.00
2019-05-20T08:24:32.592Z,97073.00
2019-05-20T08:27:00.517Z,97075.00
2019-05-20T08:29:28.047Z,97073.00
2019-05-20T08:31:55.579Z,97074.00
2019-05-20T08:34:23.047Z,97070.00
2019-05-20T08:36:50.483Z,97076.00
2019-05-20T08:39:17.922Z,97085.00
2019-05-20T08:41:45.500Z,97082.00
2019-05-20T08:44:13.065Z,97081.00
2019-05-20T08:46:40.487Z,97082.00
2019-05-20T08:49:11.285Z,97081.00
2019-05-20T08:51:37.011Z,97087.00
2019-05-20T08:54:04.943Z,97078.00
2019-05-20T08:56:32.463Z,97085.00
2019-05-20T08:58:59.892Z,97085.00
2019-05-20T09:01:27.301Z,97086.00
2019-05-20T09:03:54.472Z,97083.00
2019-05-20T09:06:22.111Z,97083.00
2019-05-20T09:08:49.686Z,97089.00
2019-05-20T09:11:17.126Z,97092.00
2019-05-20T09:13:44.601Z,97094.00
2019-05-20T09:16:12.128Z,97095.00
2019-05-20T09:18:39.592Z,97092.00
2019-05-20T09:21:07.235Z,97095.00
2019-05-20T09:23:34.535Z,97090.00
2019-05-20T09:26:02.171Z,97087.00
2019-05-20T09:28:29.911Z,97094.00
2019-05-20T09:30:57.728Z,97092.00
2019-05-20T09:33:25.322Z,97087.00
2019-05-20T09:35:52.906Z,97086.00
2019-05-20T09:38:21.469Z,97091.00
2019-05-20T09:40:49.952Z,97099.00
2019-05-20T09:43:17.569Z,97092.00
2019-05-20T09:45:45.166Z,97095.00
2019-05-20T09:48:13.310Z,97093.00
2019-05-20T09:50:41.037Z,97098.00
2019-05-20T09:53:08.784Z,97099.00
2019-05-20T09:55:36.587Z,97097.00
2019-05-20T09:58:05.205Z,97089.00
2019-05-20T10:00:32.969Z,97096.00
2019-05-20T10:03:00.264Z,97105.00
2019-05-20T10:05:27.819Z,97106.00
2019-05-20T10:07:55.371Z,97101.00
2019-05-20T10:10:22.930Z,97108.00
2019-05-20T10:15:20.460Z,97113.00
2019-05-20T10:17:47.697Z,97110.00
2019-05-20T10:20:17.334Z,97104.00
2019-05-20T10:22:44.822Z,97112.00
2019-05-20T10:25:12.874Z,97115.00
2019-05-20T10:27:40.446Z,97116.00
2019-05-20T10:30:09.588Z,97116.00
2019-05-20T10:32:37.094Z,97105.00
2019-05-20T10:35:07.619Z,97121.00
2019-05-20T10:37:35.075Z,97120.00
2019-05-20T10:40:03.857Z,97116.00
2019-05-20T10:42:31.526Z,97126.00
2019-05-20T10:44:59.074Z,97125.00
2019-05-20T10:47:26.464Z,97128.00
2019-05-20T10:49:53.877Z,97126.00
2019-05-20T10:52:21.355Z,97135.00
2019-05-20T10:54:48.707Z,97134.00
2019-05-20T10:57:16.158Z,97132.00
2019-05-20T10:59:43.609Z,97135.00
2019-05-20T11:02:11.412Z,97147.00
2019-05-20T11:04:39.043Z,97139.00
2019-05-20T11:07:06.554Z,97151.00
2019-05-20T11:09:33.692Z,97152.00
2019-05-20T11:12:01.477Z,97154.00
2019-05-20T11:14:29.086Z,97150.00
2019-05-20T11:16:56.662Z,97154.00
2019-05-20T11:19:24.092Z,97155.00
2019-05-20T11:21:51.461Z,97163.00
2019-05-20T11:24:18.797Z,97159.00
2019-05-20T11:26:46.294Z,97151.00
2019-05-20T11:29:13.795Z,97155.00
2019-05-20T11:31:41.365Z,97154.00
2019-05-20T11:34:09.140Z,97155.00
2019-05-20T11:36:36.592Z,97156.00
2019-05-20T11:39:07.326Z,97155.00
2019-05-20T11:44:04.331Z,97150.00
2019-05-20T11:46:31.726Z,97156.00
2019-05-20T11:48:59.295Z,97155.00
2019-05-20T11:51:27.068Z,97161.00
2019-05-20T11:53:54.693Z,97157.00
2019-05-20T11:56:22.112Z,97159.00
2019-05-20T11:58:49.591Z,97161.00
2019-05-20T12:01:17.183Z,97163.00
2019-05-20T12:03:44.806Z,97157.00
2019-05-20T12:06:12.108Z,97161.00
2019-05-20T12:08:39.553Z,97165.00
2019-05-20T12:11:07.683Z,97159.00
2019-05-20T12:13:35.174Z,97158.00
2019-05-20T12:16:02.939Z,97163.00
2019-05-20T12:18:30.398Z,97161.00
2019-05-20T12:20:58.065Z,97155.00
2019-05-20T12:23:25.513Z,97158.00
2019-05-20T12:25:52.669Z,97163.00
2019-05-20T12:30:47.643Z,97160.00
2019-05-20T12:33:19.099Z,97164.00
2019-05-20T12:35:44.334Z,97163.00
2019-05-20T12:38:11.573Z,97165.00
2019-05-20T12:40:38.968Z,97167.00
2019-05-20T12:43:06.555Z,97167.00
2019-05-20T12:48:04.140Z,97162.00
2019-05-20T12:50:31.418Z,97163.00
2019-05-20T12:52:58.885Z,97163.00
2019-05-20T12:55:26.454Z,97164.00
2019-05-20T12:57:53.875Z,97164.00
2019-05-20T13:00:24.374Z,97170.00
2019-05-20T13:02:51.565Z,97161.00
2019-05-20T13:05:19.127Z,97157.00
2019-05-20T13:07:46.792Z,97154.00
2019-05-20T13:10:28.905Z,97158.00
2019-05-20T13:12:44.271Z,97155.00
2019-05-20T13:15:14.284Z,97149.00
2019-05-20T13:17:44.659Z,97150.00
2019-05-20T13:20:30.701Z,97145.00
2019-05-20T13:22:58.079Z,97148.00
2019-05-20T13:25:25.505Z,97149.00
2019-05-20T13:27:52.972Z,97157.00
2019-05-20T13:30:21.295Z,97151.00
2019-05-20T13:32:48.523Z,97161.00
2019-05-20T13:35:16.333Z,97162.00
2019-05-20T13:37:43.904Z,97156.00
2019-05-20T13:40:12.138Z,97155.00
2019-05-20T13:42:39.641Z,97153.00
2019-05-20T13:45:07.869Z,97159.00
2019-05-20T13:47:35.880Z,97158.00
2019-05-20T13:50:07.678Z,97158.00
2019-05-20T13:52:35.987Z,97162.00
2019-05-20T13:55:04.136Z,97171.00
2019-05-20T13:57:31.646Z,97168.00
2019-05-20T13:59:59.105Z,97167.00
2019-05-20T14:02:26.559Z,97165.00
2019-05-20T14:04:54.206Z,97169.00
2019-05-20T14:07:21.679Z,97168.00
2019-05-20T14:09:49.428Z,97170.00
2019-05-20T14:12:18.467Z,97168.00
2019-05-20T14:14:45.890Z,97169.00
2019-05-20T14:17:13.439Z,97164.00
2019-05-20T14:19:40.891Z,97162.00
2019-05-20T14:22:08.356Z,97165.00
2019-05-20T14:24:35.915Z,97161.00
2019-05-20T14:27:03.263Z,97164.00
2019-05-20T14:29:30.825Z,97164.00
2019-05-20T14:31:58.311Z,97158.00
2019-05-20T14:34:25.936Z,97156.00
2019-05-20T14:36:53.606Z,97155.00
2019-05-20T14:39:21.089Z,97163.00
2019-05-20T14:41:48.616Z,97159.00
2019-05-20T14:44:16.017Z,97157.00
2019-05-20T14:46:44.635Z,97164.00
2019-05-20T14:49:12.206Z,97159.00
2019-05-20T14:51:39.775Z,97153.00
2019-05-20T14:54:07.334Z,97159.00
2019-05-20T14:56:34.802Z,97158.00
2019-05-20T14:59:02.863Z,97155.00
2019-05-20T15:01:30.223Z,97158.00
2019-05-20T15:03:57.602Z,97156.00
2019-05-20T15:06:25.445Z,97157.00
2019-05-20T15:08:52.931Z,97156.00
2019-05-20T15:11:36.808Z,97150.00
2019-05-20T15:13:50.068Z,97150.00
2019-05-20T15:16:17.523Z,97161.00
2019-05-20T15:18:44.959Z,97164.00
2019-05-20T15:21:12.790Z,97161.00
2019-05-20T15:23:40.548Z,97162.00
2019-05-20T15:26:08.376Z,97168.00
2019-05-20T15:28:36.082Z,97161.00
2019-05-20T15:31:03.572Z,97161.00
2019-05-20T15:33:31.226Z,97163.00
2019-05-20T15:35:58.835Z,97166.00
2019-05-20T15:38:26.511Z,97168.00
2019-05-20T15:40:53.820Z,97171.00
2019-05-20T15:43:21.253Z,97163.00
2019-05-20T15:45:48.724Z,97167.00
2019-05-20T15:48:16.262Z,97170.00
2019-05-20T15:50:43.571Z,97168.00
2019-05-20T15:53:12.136Z,97167.00
2019-05-20T15:55:40.142Z,97162.00
2019-05-20T15:58:07.477Z,97166.00
2019-05-20T16:00:34.665Z,97168.00
2019-05-20T16:03:02.216Z,97165.00
2019-05-20T16:05:29.634Z,97166.00
2019-05-20T16:07:56.904Z,97157.00
2019-05-20T16:10:24.238Z,97163.00
2019-05-20T16:15:20.283Z,97152.00
2019-05-20T16:17:48.756Z,97153.00
2019-05-20T16:20:16.318Z,97155.00
2019-05-20T16:22:43.612Z,97149.00
2019-05-20T16:25:11.184Z,97152.00
2019-05-20T16:27:38.492Z,97149.00
2019-05-20T16:30:09.169Z,97156.00
2019-05-20T16:32:36.446Z,97149.00
2019-05-20T16:35:05.948Z,97154.00
2019-05-20T16:37:33.064Z,97152.00
2019-05-20T16:40:00.299Z,97162.00
2019-05-20T16:42:27.836Z,97159.00
2019-05-20T16:44:55.036Z,97163.00
2019-05-20T16:47:22.143Z,97152.00
2019-05-20T16:52:17.045Z,97165.00
2019-05-20T16:54:44.296Z,97161.00
2019-05-20T16:57:11.551Z,97163.00
2019-05-20T16:59:38.937Z,97161.00
2019-05-20T17:02:06.501Z,97162.00
2019-05-20T17:04:33.973Z,97162.00
2019-05-20T17:07:01.372Z,97167.00
2019-05-20T17:09:28.503Z,97169.00
2019-05-20T17:11:55.813Z,97169.00
2019-05-20T17:14:23.167Z,97167.00
2019-05-20T17:16:50.817Z,97165.00
2019-05-20T17:19:18.267Z,97167.00
2019-05-20T17:21:45.736Z,97172.00
2019-05-20T17:24:13.201Z,97176.00
2019-05-20T17:26:40.874Z,97172.00
2019-05-20T17:29:08.471Z,97167.00
2019-05-20T17:31:36.079Z,97167.00
2019-05-20T17:34:03.572Z,97168.00
2019-05-20T17:36:31.364Z,97167.00
2019-05-20T17:38:58.648Z,97167.00
2019-05-20T17:41:26.128Z,97168.00
2019-05-20T17:43:53.653Z,97165.00
2019-05-20T17:46:21.441Z,97176.00
2019-05-20T17:48:48.804Z,97176.00
2019-05-20T17:51:16.297Z,97173.00
2019-05-20T17:53:43.398Z,97181.00
2019-05-20T17:56:10.711Z,97182.00
2019-05-20T17:58:38.070Z,97183.00
2019-05-20T18:01:14.833Z,97178.00
2019-05-20T18:03:34.844Z,97183.00
2019-05-20T18:06:02.513Z,97183.00
2019-05-20T18:08:31.411Z,97183.00
2019-05-20T18:10:58.744Z,97182.00
2019-05-20T18:13:26.039Z,97184.00
2019-05-20T18:15:53.771Z,97183.00
2019-05-20T18:18:21.208Z,97186.00
2019-05-20T18:20:48.852Z,97190.00
2019-05-20T18:23:16.091Z,97188.00
2019-05-20T18:25:43.592Z,97190.00
2019-05-20T18:28:10.849Z,97191.00
2019-05-20T18:30:38.246Z,97195.00
2019-05-20T18:33:05.753Z,97196.00
2019-05-20T18:35:33.320Z,97202.00
2019-05-20T18:38:00.818Z,97199.00
2019-05-20T18:40:28.323Z,97205.00
2019-05-20T18:42:55.801Z,97212.00
2019-05-20T18:45:23.230Z,97203.00
2019-05-20T18:47:50.648Z,97215.00
2019-05-20T18:50:18.527Z,97201.00
2019-05-20T18:52:46.364Z,97199.00
2019-05-20T18:55:14.109Z,97204.00
2019-05-20T18:57:41.367Z,97209.00
2019-05-20T19:00:10.827Z,97220.00
2019-05-20T19:02:38.313Z,97219.00
2019-05-20T19:05:09.232Z,97222.00
2019-05-20T19:07:36.800Z,97219.00
2019-05-20T19:10:05.596Z,97226.00
2019-05-20T19:12:32.892Z,97226.00
2019-05-20T19:15:00.386Z,97226.00
2019-05-20T19:17:27.967Z,97245.00
2019-05-20T19:19:55.696Z,97239.00
2019-05-20T19:22:23.471Z,97244.00
2019-05-20T19:24:51.630Z,97248.00
2019-05-20T19:27:19.510Z,97255.00
2019-05-20T19:29:47.121Z,97249.00
2019-05-20T19:32:16.369Z,97254.00
2019-05-20T19:34:44.026Z,97248.00
2019-05-20T19:37:11.611Z,97253.00
2019-05-20T19:39:39.151Z,97244.00
2019-05-20T19:42:06.971Z,97243.00
2019-05-20T19:44:34.493Z,97244.00
2019-05-20T19:47:01.577Z,97245.00
2019-05-20T19:49:29.791Z,97241.00
2019-05-20T19:51:57.557Z,97243.00
2019-05-20T19:54:25.031Z,97241.00
2019-05-20T19:56:52.260Z,97246.00
2019-05-20T19:59:19.974Z,97239.00
2019-05-20T20:01:47.582Z,97240.00
2019-05-20T20:04:15.130Z,97240.00
2019-05-20T20:06:42.597Z,97238.00
2019-05-20T20:09:10.768Z,97232.00
2019-05-20T20:11:38.063Z,97230.00
2019-05-20T20:14:05.528Z,97227.00
2019-05-20T20:16:32.984Z,97232.00
2019-05-20T20:19:00.498Z,97225.00
2019-05-20T20:21:28.147Z,97229.00
2019-05-20T20:23:55.532Z,97227.00
2019-05-20T20:26:23.004Z,97222.00
2019-05-20T20:28:50.523Z,97220.00
2019-05-20T20:31:18.282Z,97229.00
2019-05-20T20:33:45.450Z,97221.00
2019-05-20T20:36:12.583Z,97227.00
2019-05-20T20:38:40.362Z,97224.00
2019-05-20T20:41:07.902Z,97228.00
2019-05-20T20:43:35.363Z,97218.00
2019-05-20T20:46:02.881Z,97217.00
2019-05-20T20:48:30.365Z,97214.00
2019-05-20T20:50:57.859Z,97220.00
2019-05-20T20:53:25.798Z,97214.00
2019-05-20T20:55:53.437Z,97218.00
2019-05-20T20:58:20.938Z,97221.00
2019-05-20T21:00:48.467Z,97225.00
2019-05-20T21:03:15.930Z,97218.00
2019-05-20T21:05:43.538Z,97223.00
2019-05-20T21:08:10.959Z,97221.00
2019-05-20T21:10:38.494Z,97226.00
2019-05-20T21:13:05.957Z,97235.00
2019-05-20T21:15:33.417Z,97229.00
2019-05-20T21:18:00.992Z,97238.00
2019-05-20T21:20:28.487Z,97234.00
2019-05-20T21:22:55.981Z,97228.00
2019-05-20T21:25:23.447Z,97227.00
2019-05-20T21:27:51.308Z,97228.00
2019-05-20T21:30:19.061Z,97240.00
2019-05-20T21:32:46.331Z,97236.00
2019-05-20T21:35:13.834Z,97248.00
2019-05-20T21:37:41.330Z,97249.00
2019-05-20T21:40:09.399Z,97247.00
2019-05-20T21:42:36.853Z,97239.00
2019-05-20T21:45:06.663Z,97252.00
2019-05-20T21:47:34.241Z,97247.00
2019-05-20T21:50:01.788Z,97242.00
2019-05-20T21:52:29.642Z,97242.00
2019-05-20T21:54:57.023Z,97246.00
2019-05-20T21:57:24.486Z,97248.00
2019-05-20T21:59:51.807Z,97237.00
2019-05-20T22:02:19.272Z,97249.00
2019-05-20T22:04:46.731Z,97254.00
2019-05-20T22:07:14.284Z,97258.00
2019-05-20T22:09:41.816Z,97258.00
2019-05-20T22:12:09.484Z,97261.00
2019-05-20T22:14:36.862Z,97263.00
2019-05-20T22:17:04.506Z,97261.00
2019-05-20T22:19:31.640Z,97255.00
2019-05-20T22:22:00.649Z,97256.00
2019-05-20T22:24:28.027Z,97249.00
2019-05-20T22:26:55.575Z,97252.00
2019-05-20T22:29:23.756Z,97259.00
2019-05-20T22:31:51.106Z,97249.00
2019-05-20T22:34:18.355Z,97248.00
2019-05-20T22:36:46.637Z,97254.00
2019-05-20T22:39:14.010Z,97255.00
2019-05-20T22:41:41.664Z,97259.00
2019-05-20T22:44:09.070Z,97256.00
2019-05-20T22:46:36.486Z,97254.00
2019-05-20T22:49:04.211Z,97247.00
2019-05-20T22:51:31.815Z,97252.00
2019-05-20T22:53:59.429Z,97252.00
2019-05-20T22:56:26.910Z,97245.00
2019-05-20T22:58:54.418Z,97249.00
2019-05-20T23:01:21.794Z,97246.00
2019-05-20T23:03:56.472Z,97245.00
2019-05-20T23:06:18.876Z,97242.00
2019-05-20T23:08:46.586Z,97233.00
2019-05-20T23:11:13.863Z,97231.00
2019-05-20T23:13:41.321Z,97238.00
2019-05-20T23:16:08.790Z,97234.00
2019-05-20T23:18:36.413Z,97230.00
2019-05-20T23:21:03.905Z,97235.00
2019-05-20T23:23:31.370Z,97235.00
2019-05-20T23:25:58.803Z,97239.00
2019-05-20T23:28:26.301Z,97245.00
2019-05-20T23:30:54.131Z,97248.00
2019-05-20T23:33:21.588Z,97255.00
2019-05-20T23:35:49.150Z,97252.00
2019-05-20T23:38:18.165Z,97256.00
2019-05-20T23:40:45.649Z,97247.00
2019-05-20T23:43:12.969Z,97244.00
2019-05-20T23:45:41.430Z,97239.00
2019-05-20T23:48:09.194Z,97241.00
2019-05-20T23:50:36.649Z,97239.00
2019-05-20T23:53:04.002Z,97229.00
2019-05-20T23:55:31.564Z,97227.00
2019-05-20T23:57:59.229Z,97231.00
